Time;durP1;ratioP1;P1;durP2;ratioP2;P2;SDS_P1;SDS_P2;PMS_P1;PMS_P2;Temp;Humidity;BMP_temperature;BMP_pressure;BME280_temperature;BME280_humidity;BME280_pressure;Samples;Min_cycle;Max_cycle;Signal;HPM_P1;HPM_P2
2022/01/10 00:01:41;;;;;;;11.40;4.83;;;3.40;97.30;;;;;;4976455;28;20204;-84
2022/01/10 00:04:06;;;;;;;11.07;4.90;;;3.40;97.30;;;;;;4962548;28;20254;-84
2022/01/10 00:06:32;;;;;;;13.70;5.57;;;3.40;97.30;;;;;;4973642;28;21148;-84
2022/01/10 00:08:57;;;;;;;17.13;5.67;;;3.40;97.30;;;;;;4963895;28;20174;-84
2022/01/10 00:11:23;;;;;;;10.23;5.17;;;3.40;97.30;;;;;;4989511;28;20182;-84
2022/01/10 00:13:49;;;;;;;12.80;4.90;;;3.40;97.30;;;;;;4976694;28;20586;-84
2022/01/10 00:16:15;;;;;;;11.30;5.23;;;3.40;97.30;;;;;;4972341;28;20317;-84
2022/01/10 00:18:40;;;;;;;11.97;5.30;;;3.40;97.30;;;;;;4973454;28;20487;-84
2022/01/10 00:21:06;;;;;;;15.80;5.07;;;3.40;97.30;;;;;;4976786;28;20218;-84
2022/01/10 00:23:32;;;;;;;16.90;6.10;;;3.40;97.30;;;;;;4994006;28;20244;-84
2022/01/10 00:25:57;;;;;;;14.03;5.80;;;3.40;97.30;;;;;;4977225;28;20186;-84
2022/01/10 00:28:22;;;;;;;13.23;4.90;;;3.40;97.30;;;;;;4994219;28;20198;-84
2022/01/10 00:30:48;;;;;;;14.00;6.47;;;3.50;97.30;;;;;;4976635;28;20289;-84
2022/01/10 00:33:13;;;;;;;13.10;5.33;;;3.50;97.30;;;;;;4972466;28;20198;-84
2022/01/10 00:35:39;;;;;;;11.93;5.53;;;3.50;97.30;;;;;;4964970;28;20182;-84
2022/01/10 00:38:05;;;;;;;11.07;5.00;;;3.50;97.30;;;;;;4994324;28;20240;-84
2022/01/10 00:40:30;;;;;;;14.50;5.63;;;3.50;97.30;;;;;;4976333;28;20834;-84
2022/01/10 00:42:57;;;;;;;16.20;5.77;;;3.50;97.30;;;;;;4976557;28;20217;-85
2022/01/10 00:45:26;;;;;;;12.20;4.97;;;3.50;97.30;;;;;;4976932;28;20173;-84
2022/01/10 00:47:53;;;;;;;25.87;6.63;;;3.50;97.30;;;;;;4976495;28;20432;-84
2022/01/10 00:50:20;;;;;;;11.60;5.73;;;3.60;97.30;;;;;;4976606;28;20433;-84
2022/01/10 00:52:45;;;;;;;11.07;5.10;;;3.60;97.30;;;;;;4993537;28;20445;-85
2022/01/10 00:55:12;;;;;;;16.30;6.00;;;3.60;97.30;;;;;;4960236;28;20479;-84
2022/01/10 00:57:38;;;;;;;12.97;5.80;;;3.60;97.30;;;;;;4976149;28;20185;-84
2022/01/10 01:00:06;;;;;;;14.73;5.77;;;3.60;97.30;;;;;;4976051;28;20461;-84
2022/01/10 01:02:32;;;;;;;17.63;6.53;;;3.60;97.30;;;;;;4975965;28;20467;-84
2022/01/10 01:05:00;;;;;;;15.93;5.20;;;3.60;97.30;;;;;;4975694;28;20504;-84
2022/01/10 01:07:26;;;;;;;16.07;6.30;;;3.60;97.30;;;;;;4989267;28;20453;-84
2022/01/10 01:10:11;;;;;;;19.77;6.37;;;3.60;97.30;;;;;;4964062;28;20421;-84
2022/01/10 01:12:51;;;;;;;23.63;8.57;;;3.60;97.30;;;;;;4976158;28;20255;-84
2022/01/10 01:15:31;;;;;;;12.47;5.43;;;3.60;97.30;;;;;;4960246;28;20476;-84
2022/01/10 01:25:53;;;;;;;12.83;5.50;;;3.60;97.30;;;;;;4987026;28;20464;-84
2022/01/10 01:28:19;;;;;;;14.63;5.67;;;3.60;97.30;;;;;;4968258;28;20425;-84
2022/01/10 01:30:44;;;;;;;15.83;4.73;;;3.60;97.30;;;;;;4979986;28;20189;-84
2022/01/10 01:33:13;;;;;;;12.30;5.53;;;3.60;97.30;;;;;;4979897;28;20668;-84
2022/01/10 01:35:38;;;;;;;11.27;5.33;;;3.60;97.30;;;;;;4980112;28;20181;-84
2022/01/10 01:38:04;;;;;;;15.00;4.60;;;3.60;97.30;;;;;;4997190;28;20421;-84
2022/01/10 01:40:31;;;;;;;13.20;5.33;;;3.60;97.30;;;;;;4979926;28;20201;-84
2022/01/10 01:42:57;;;;;;;10.10;5.00;;;3.60;97.30;;;;;;4979365;28;20694;-84
2022/01/10 01:45:43;;;;;;;9.37;5.07;;;3.60;97.30;;;;;;4979811;28;20417;-84
2022/01/10 01:48:09;;;;;;;10.93;5.03;;;3.60;97.30;;;;;;4997027;28;20726;-84
2022/01/10 01:50:35;;;;;;;9.67;5.03;;;3.60;97.30;;;;;;4979570;28;20452;-84
2022/01/10 01:53:01;;;;;;;15.17;5.47;;;3.60;97.30;;;;;;4982334;28;20252;-84
2022/01/10 01:55:26;;;;;;;16.37;5.50;;;3.60;97.30;;;;;;4979534;28;20420;-84
2022/01/10 01:57:52;;;;;;;10.17;4.77;;;3.60;97.30;;;;;;4993643;28;20178;-84
2022/01/10 02:00:19;;;;;;;11.03;5.30;;;3.50;97.30;;;;;;4979487;28;20622;-83
2022/01/10 02:02:46;;;;;;;8.80;4.30;;;3.50;97.30;;;;;;4978904;28;20589;-84
2022/01/10 02:05:12;;;;;;;10.30;4.70;;;3.50;97.30;;;;;;4979091;28;20420;-84
2022/01/10 02:07:38;;;;;;;8.73;4.53;;;3.50;97.30;;;;;;4978961;28;20416;-84
2022/01/10 02:10:07;;;;;;;14.80;4.73;;;3.40;97.30;;;;;;4978937;28;20691;-84
2022/01/10 02:12:32;;;;;;;14.23;5.00;;;3.40;97.30;;;;;;4978691;28;20240;-84
2022/01/10 02:14:58;;;;;;;14.53;4.47;;;3.40;97.30;;;;;;4973559;28;20421;-84
2022/01/10 02:17:33;;;;;;;17.30;5.90;;;3.30;97.30;;;;;;4979213;28;20201;-84
2022/01/10 02:20:06;;;;;;;18.27;5.03;;;3.30;97.30;;;;;;4978820;28;20177;-84
2022/01/10 02:22:32;;;;;;;12.03;4.50;;;3.30;97.30;;;;;;4979026;28;20441;-84
2022/01/10 02:24:58;;;;;;;13.40;4.77;;;3.30;97.30;;;;;;4978984;28;20939;-84
2022/01/10 02:27:24;;;;;;;9.70;4.77;;;3.30;97.30;;;;;;4979071;28;20201;-84
2022/01/10 02:29:50;;;;;;;10.50;3.83;;;3.30;97.30;;;;;;4975909;28;20676;-83
2022/01/10 02:32:16;;;;;;;11.70;4.50;;;3.30;97.30;;;;;;4965933;28;20444;-83
2022/01/10 02:34:42;;;;;;;10.17;4.77;;;3.40;97.30;;;;;;4996114;28;20417;-84
2022/01/10 02:37:08;;;;;;;8.43;5.20;;;3.40;97.30;;;;;;4978656;28;20421;-84
2022/01/10 02:39:36;;;;;;;15.00;5.30;;;3.40;97.30;;;;;;4962164;28;20189;-84
2022/01/10 02:42:01;;;;;;;10.27;5.20;;;3.40;97.30;;;;;;4974698;28;20209;-84
2022/01/10 02:44:29;;;;;;;11.77;4.53;;;3.30;97.30;;;;;;4959052;28;20414;-84
2022/01/10 02:46:56;;;;;;;12.50;5.03;;;3.40;97.30;;;;;;4987288;28;20182;-83
2022/01/10 02:49:28;;;;;;;12.30;5.50;;;3.40;97.30;;;;;;4978455;28;20425;-84
2022/01/10 02:51:58;;;;;;;10.10;4.90;;;3.40;97.30;;;;;;4962200;28;20484;-84
2022/01/10 02:54:24;;;;;;;10.93;4.90;;;3.40;97.30;;;;;;4972483;28;20485;-84
2022/01/10 02:56:52;;;;;;;11.87;4.77;;;3.40;97.30;;;;;;4986282;28;20502;-84
2022/01/10 02:59:18;;;;;;;10.50;5.30;;;3.40;97.30;;;;;;4965035;28;20932;-84
2022/01/10 03:01:44;;;;;;;13.73;5.73;;;3.40;97.30;;;;;;4992819;28;20503;-84
2022/01/10 03:04:11;;;;;;;15.87;5.73;;;3.40;97.30;;;;;;4978055;28;20467;-84
2022/01/10 03:06:37;;;;;;;18.43;8.30;;;3.40;97.30;;;;;;4978229;28;20887;-84
2022/01/10 03:09:05;;;;;;;20.80;5.40;;;3.40;97.30;;;;;;4978002;28;20471;-84
2022/01/10 03:11:38;;;;;;;20.13;5.23;;;3.40;97.30;;;;;;4963772;28;20472;-83
2022/01/10 03:14:04;;;;;;;10.63;4.60;;;3.40;97.30;;;;;;4974784;28;20441;-84
2022/01/10 03:16:30;;;;;;;17.70;5.10;;;3.40;97.30;;;;;;4981863;28;20932;-84
2022/01/10 03:18:56;;;;;;;15.77;6.40;;;3.50;97.30;;;;;;4985897;28;20414;-84
2022/01/10 03:21:21;;;;;;;9.10;5.10;;;3.40;97.30;;;;;;4970854;28;20717;-84
2022/01/10 03:23:48;;;;;;;13.40;5.23;;;3.40;97.30;;;;;;4961982;28;20209;-86
2022/01/10 03:26:14;;;;;;;12.73;4.97;;;3.50;97.30;;;;;;4962072;28;20177;-84
2022/01/10 03:28:40;;;;;;;10.73;5.07;;;3.50;97.30;;;;;;4971205;28;20469;-83
2022/01/10 03:31:05;;;;;;;12.00;5.20;;;3.50;97.30;;;;;;4968548;28;20190;-83
2022/01/10 03:33:31;;;;;;;13.83;5.33;;;3.50;97.30;;;;;;4977923;28;20559;-84
2022/01/10 03:35:56;;;;;;;18.23;5.77;;;3.50;97.30;;;;;;4994913;28;20232;-83
2022/01/10 03:38:22;;;;;;;13.70;6.10;;;3.50;97.30;;;;;;4977302;28;20205;-83
2022/01/10 03:40:47;;;;;;;7.43;4.43;;;3.50;97.30;;;;;;4977255;28;20274;-83
2022/01/10 03:43:13;;;;;;;10.17;4.70;;;3.50;97.30;;;;;;4967148;28;20214;-83
2022/01/10 03:45:39;;;;;;;17.70;5.27;;;3.50;97.30;;;;;;4971763;28;20190;-83
2022/01/10 03:48:05;;;;;;;16.03;5.77;;;3.50;97.30;;;;;;4977501;28;20429;-84
2022/01/10 03:50:30;;;;;;;11.17;5.13;;;3.60;97.30;;;;;;4976519;28;20186;-84
2022/01/10 03:52:56;;;;;;;14.10;5.67;;;3.60;97.30;;;;;;4984831;28;20675;-83
2022/01/10 03:55:22;;;;;;;22.10;6.53;;;3.60;97.30;;;;;;4986105;28;20190;-83
2022/01/10 03:57:47;;;;;;;24.73;5.50;;;3.60;97.30;;;;;;4976996;28;20280;-84
2022/01/10 04:00:13;;;;;;;13.97;6.33;;;3.60;97.30;;;;;;4976753;28;20878;-83
2022/01/10 04:02:42;;;;;;;11.97;5.23;;;3.60;97.30;;;;;;4975232;28;20267;-83
2022/01/10 04:05:08;;;;;;;13.90;4.97;;;3.60;97.30;;;;;;4975365;28;20425;-84
2022/01/10 04:07:33;;;;;;;13.10;6.30;;;3.60;97.30;;;;;;4975099;28;21009;-84
2022/01/10 04:09:59;;;;;;;14.20;5.73;;;3.60;97.30;;;;;;4974541;28;20707;-84
2022/01/10 04:12:25;;;;;;;20.13;5.77;;;3.60;97.30;;;;;;4992831;28;20252;-84
2022/01/10 04:14:50;;;;;;;15.17;5.40;;;3.60;97.30;;;;;;4975223;28;20174;-84
2022/01/10 04:17:16;;;;;;;10.40;5.63;;;3.60;97.30;;;;;;4975055;28;20424;-86
2022/01/10 04:19:42;;;;;;;16.10;5.53;;;3.60;97.30;;;;;;4992647;28;20189;-83
2022/01/10 04:22:07;;;;;;;13.10;5.33;;;3.60;97.30;;;;;;4958947;28;20214;-84
2022/01/10 04:24:33;;;;;;;13.07;5.73;;;3.60;97.30;;;;;;4972360;28;20415;-84
2022/01/10 04:26:58;;;;;;;11.83;5.60;;;3.50;97.30;;;;;;4955700;28;20255;-84
2022/01/10 04:29:24;;;;;;;18.70;5.50;;;3.50;97.30;;;;;;4982778;28;20268;-84
2022/01/10 04:31:49;;;;;;;11.57;6.30;;;3.50;97.30;;;;;;4975076;28;20632;-84
2022/01/10 04:34:16;;;;;;;13.27;5.60;;;3.50;97.30;;;;;;4974432;28;20205;-84
2022/01/10 04:36:42;;;;;;;17.90;6.90;;;3.50;97.30;;;;;;4960225;28;20289;-84
2022/01/10 04:39:07;;;;;;;19.23;6.73;;;3.50;97.30;;;;;;4974918;28;20496;-84
2022/01/10 04:41:33;;;;;;;13.20;6.20;;;3.50;97.30;;;;;;4974602;28;20583;-84
2022/01/10 04:43:58;;;;;;;11.03;5.53;;;3.50;97.30;;;;;;4978690;28;20823;-84
2022/01/10 04:46:24;;;;;;;13.07;5.17;;;3.50;97.30;;;;;;4989135;28;20185;-84
2022/01/10 04:48:49;;;;;;;14.50;6.57;;;3.50;97.30;;;;;;4974632;28;20185;-84
2022/01/10 04:51:16;;;;;;;17.60;5.43;;;3.50;97.30;;;;;;4974741;28;20305;-84
2022/01/10 04:53:48;;;;;;;14.93;6.27;;;3.50;97.30;;;;;;4974629;28;20209;-84
2022/01/10 04:56:15;;;;;;;17.40;5.33;;;3.50;97.30;;;;;;4991825;28;20428;-84
2022/01/10 04:58:42;;;;;;;21.93;6.00;;;3.50;97.30;;;;;;4974341;28;20924;-84
2022/01/10 05:01:09;;;;;;;13.77;5.83;;;3.50;97.30;;;;;;4974381;28;20594;-84
2022/01/10 05:03:35;;;;;;;10.50;5.30;;;3.60;97.30;;;;;;4982214;28;20469;-84
2022/01/10 05:06:01;;;;;;;16.03;5.67;;;3.60;97.30;;;;;;4967740;28;20517;-84
2022/01/10 05:08:27;;;;;;;16.83;6.27;;;3.60;97.30;;;;;;4974377;28;20425;-84
2022/01/10 05:10:54;;;;;;;12.90;6.67;;;3.60;97.30;;;;;;4991113;28;20486;-84
2022/01/10 05:13:20;;;;;;;12.67;4.97;;;3.60;97.30;;;;;;4967974;28;20459;-84
2022/01/10 05:15:47;;;;;;;17.20;4.90;;;3.60;97.30;;;;;;4982312;28;20982;-83
2022/01/10 05:18:19;;;;;;;10.70;5.23;;;3.60;97.30;;;;;;4992224;28;20791;-84
2022/01/10 05:20:45;;;;;;;14.87;6.07;;;3.70;97.30;;;;;;4991661;28;20461;-84
2022/01/10 05:23:11;;;;;;;16.37;5.80;;;3.70;97.30;;;;;;4971664;28;20960;-84
2022/01/10 05:25:40;;;;;;;12.30;5.20;;;3.70;97.30;;;;;;4982751;28;20475;-84
2022/01/10 05:28:10;;;;;;;11.50;5.17;;;3.70;97.30;;;;;;4988236;28;20428;-84
2022/01/10 05:30:37;;;;;;;14.93;6.40;;;3.80;97.30;;;;;;4980123;28;20428;-84
2022/01/10 05:33:03;;;;;;;17.60;6.83;;;3.70;97.30;;;;;;4976398;28;20441;-84
2022/01/10 05:35:29;;;;;;;13.17;5.80;;;3.70;97.30;;;;;;4976620;28;20487;-84
2022/01/10 05:37:54;;;;;;;15.67;6.10;;;3.70;97.30;;;;;;5002590;28;20946;-83
2022/01/10 05:40:20;;;;;;;16.40;5.97;;;3.70;97.30;;;;;;4979765;28;20309;-84
2022/01/10 05:42:46;;;;;;;14.43;5.97;;;3.70;97.30;;;;;;4973781;28;20445;-83
2022/01/10 05:45:11;;;;;;;11.63;5.77;;;3.70;97.30;;;;;;4991409;28;20294;-84
2022/01/10 05:47:41;;;;;;;14.33;6.40;;;3.70;97.30;;;;;;4991086;28;20738;-84
2022/01/10 05:50:08;;;;;;;26.70;6.50;;;3.80;97.30;;;;;;4963481;28;20645;-84
2022/01/10 05:52:34;;;;;;;12.93;7.17;;;3.70;97.30;;;;;;4986571;28;20447;-84
2022/01/10 05:55:00;;;;;;;15.00;6.63;;;3.70;97.30;;;;;;4972328;28;20944;-84
2022/01/10 05:57:25;;;;;;;14.27;5.43;;;3.70;97.30;;;;;;4959419;28;20178;-83
2022/01/10 05:59:51;;;;;;;21.40;5.93;;;3.70;97.30;;;;;;4976033;28;20174;-84
2022/01/10 06:02:17;;;;;;;15.90;6.50;;;3.60;97.30;;;;;;4974258;28;20300;-84
2022/01/10 06:04:42;;;;;;;12.30;5.77;;;3.70;97.30;;;;;;4975868;28;20189;-84
2022/01/10 06:07:08;;;;;;;12.53;5.40;;;3.70;97.30;;;;;;4975452;28;20182;-84
2022/01/10 06:09:33;;;;;;;21.43;6.70;;;3.60;97.30;;;;;;4968381;28;20588;-84
2022/01/10 06:11:59;;;;;;;12.53;5.33;;;3.70;97.30;;;;;;4962585;28;20305;-84
2022/01/10 06:14:24;;;;;;;14.10;6.03;;;3.60;97.30;;;;;;4975324;28;20181;-84
2022/01/10 06:16:50;;;;;;;13.30;5.23;;;3.60;97.30;;;;;;4961692;28;20526;-84
2022/01/10 06:19:16;;;;;;;14.97;6.30;;;3.60;97.30;;;;;;4978265;28;20270;-83
2022/01/10 06:21:41;;;;;;;15.80;6.07;;;3.60;97.30;;;;;;4995265;28;20210;-84
2022/01/10 06:24:07;;;;;;;18.33;6.27;;;3.60;97.30;;;;;;4977091;28;20198;-87
2022/01/10 06:26:33;;;;;;;13.80;5.40;;;3.60;97.30;;;;;;4976953;28;20224;-86
2022/01/10 06:28:59;;;;;;;21.93;9.63;;;3.60;97.30;;;;;;4961035;28;20183;-85
2022/01/10 06:31:24;;;;;;;16.30;6.30;;;3.60;97.30;;;;;;4973608;28;20440;-85
2022/01/10 06:33:50;;;;;;;19.10;7.37;;;3.60;97.30;;;;;;4981554;28;20206;-84
2022/01/10 06:36:15;;;;;;;14.97;6.10;;;3.60;97.30;;;;;;4996145;28;20190;-85
2022/01/10 06:38:41;;;;;;;16.53;6.23;;;3.70;97.30;;;;;;4995704;28;20247;-84
2022/01/10 06:41:06;;;;;;;17.10;6.20;;;3.70;97.30;;;;;;4996092;28;20287;-85
2022/01/10 06:43:32;;;;;;;14.87;6.90;;;3.70;97.30;;;;;;4978590;28;20256;-85
2022/01/10 06:45:57;;;;;;;14.60;6.10;;;3.70;97.30;;;;;;4976744;28;20653;-85
2022/01/10 06:48:23;;;;;;;16.90;6.53;;;3.70;97.30;;;;;;4982467;28;20649;-85
2022/01/10 06:50:49;;;;;;;16.97;5.93;;;3.70;97.30;;;;;;4956688;28;20213;-85
2022/01/10 06:53:16;;;;;;;20.67;6.30;;;3.70;97.30;;;;;;4989565;28;20862;-85
2022/01/10 06:55:42;;;;;;;30.60;7.93;;;3.80;97.30;;;;;;4956189;28;20174;-84
2022/01/10 06:58:07;;;;;;;15.23;6.17;;;3.80;97.30;;;;;;4977439;28;20494;-84
2022/01/10 07:00:33;;;;;;;15.63;5.90;;;3.70;97.30;;;;;;4976917;28;20198;-84
2022/01/10 07:02:59;;;;;;;17.33;6.80;;;3.70;97.30;;;;;;4988087;28;20222;-84
2022/01/10 07:05:24;;;;;;;15.17;6.10;;;3.70;97.30;;;;;;4978076;28;20433;-84
2022/01/10 07:07:50;;;;;;;16.40;6.43;;;3.70;97.30;;;;;;4983054;28;20555;-84
2022/01/10 07:10:15;;;;;;;12.10;6.20;;;3.70;97.30;;;;;;5001571;28;20189;-84
2022/01/10 07:12:41;;;;;;;17.80;6.80;;;3.70;97.30;;;;;;5003125;28;20316;-83
2022/01/10 07:15:07;;;;;;;22.17;6.10;;;3.80;97.30;;;;;;5010585;28;20182;-84
2022/01/10 07:17:33;;;;;;;17.77;7.10;;;3.80;97.30;;;;;;4979215;28;20189;-84
2022/01/10 07:19:59;;;;;;;15.40;5.80;;;3.80;97.30;;;;;;4976644;28;20460;-85
2022/01/10 07:22:25;;;;;;;14.03;6.63;;;3.80;97.30;;;;;;4979034;28;20468;-84
2022/01/10 07:24:50;;;;;;;21.00;7.13;;;3.70;97.30;;;;;;4977732;28;20192;-83
2022/01/10 07:27:16;;;;;;;21.07;7.67;;;3.70;97.30;;;;;;4975492;28;20182;-83
2022/01/10 07:29:41;;;;;;;17.20;6.43;;;3.80;97.30;;;;;;4980112;28;20534;-84
2022/01/10 07:32:08;;;;;;;15.47;6.80;;;3.80;97.30;;;;;;4987355;28;20186;-84
2022/01/10 07:34:33;;;;;;;18.03;6.50;;;3.80;97.30;;;;;;4969018;28;20178;-84
2022/01/10 07:36:58;;;;;;;26.47;8.10;;;3.80;97.30;;;;;;4977690;28;20504;-84
2022/01/10 07:39:24;;;;;;;24.67;9.63;;;3.80;97.30;;;;;;4977451;28;20677;-84
2022/01/10 07:41:50;;;;;;;17.23;8.43;;;3.80;97.30;;;;;;4976875;28;20213;-84
2022/01/10 07:44:15;;;;;;;18.40;6.00;;;3.80;97.30;;;;;;4977125;28;20297;-84
2022/01/10 07:46:41;;;;;;;20.00;6.90;;;3.80;97.30;;;;;;4977365;28;20261;-83
2022/01/10 07:49:07;;;;;;;18.67;7.90;;;3.70;97.30;;;;;;4976780;28;20428;-84
2022/01/10 07:51:32;;;;;;;16.90;7.10;;;3.70;97.30;;;;;;4976950;28;20248;-83
2022/01/10 07:53:59;;;;;;;12.77;6.67;;;3.70;97.30;;;;;;4973780;28;20206;-83
2022/01/10 07:56:25;;;;;;;18.50;6.67;;;3.70;97.30;;;;;;4965015;28;20657;-83
2022/01/10 07:58:52;;;;;;;22.53;8.50;;;3.70;97.30;;;;;;4977157;28;20421;-83
2022/01/10 08:01:19;;;;;;;18.20;7.70;;;3.70;97.30;;;;;;4977316;28;20885;-84
2022/01/10 08:03:52;;;;;;;27.50;8.00;;;3.70;97.30;;;;;;4960493;28;20490;-82
2022/01/10 08:06:18;;;;;;;19.97;8.00;;;3.70;97.30;;;;;;4977106;28;20516;-83
2022/01/10 08:08:44;;;;;;;34.23;11.30;;;3.80;97.30;;;;;;4977510;28;20953;-82
2022/01/10 08:11:10;;;;;;;27.43;10.27;;;3.80;97.30;;;;;;4979252;28;20440;-81
2022/01/10 08:13:36;;;;;;;30.90;10.83;;;3.80;97.30;;;;;;5001418;28;20213;-82
2022/01/10 08:16:02;;;;;;;39.20;12.50;;;3.80;97.30;;;;;;4980559;28;20421;-83
2022/01/10 08:18:30;;;;;;;49.73;14.60;;;3.80;97.30;;;;;;4977276;28;20196;-83
2022/01/10 08:20:56;;;;;;;49.57;15.30;;;3.80;97.30;;;;;;4976982;28;20469;-83
2022/01/10 08:23:21;;;;;;;47.43;15.00;;;3.90;97.30;;;;;;4994293;28;20464;-82
2022/01/10 08:25:48;;;;;;;32.97;9.20;;;3.90;97.30;;;;;;4977157;28;20202;-83
2022/01/10 08:28:14;;;;;;;35.07;10.73;;;3.90;97.30;;;;;;4976773;28;20432;-83
2022/01/10 08:30:39;;;;;;;24.23;7.57;;;4.00;97.30;;;;;;4976597;28;20182;-83
2022/01/10 08:33:05;;;;;;;16.23;7.60;;;4.00;97.30;;;;;;4976701;28;20704;-83
2022/01/10 08:35:30;;;;;;;17.97;7.10;;;4.10;97.30;;;;;;4976440;28;20178;-83
2022/01/10 08:37:56;;;;;;;18.07;7.30;;;4.10;97.30;;;;;;4976260;28;20269;-84
2022/01/10 08:40:21;;;;;;;15.73;6.03;;;4.20;97.30;;;;;;4993817;28;20205;-83
2022/01/10 08:42:47;;;;;;;23.43;6.60;;;4.30;97.30;;;;;;4976442;28;20202;-83
2022/01/10 08:45:13;;;;;;;19.90;6.27;;;4.30;97.30;;;;;;4976368;28;20213;-83
2022/01/10 08:47:39;;;;;;;15.33;5.37;;;4.40;97.30;;;;;;4976559;28;20285;-83
2022/01/10 08:50:07;;;;;;;14.43;6.03;;;4.40;97.30;;;;;;4993623;28;20174;-83
2022/01/10 08:52:33;;;;;;;18.40;6.17;;;4.40;97.30;;;;;;4976053;28;20532;-83
2022/01/10 08:54:58;;;;;;;16.83;5.97;;;4.40;97.30;;;;;;4976115;28;20861;-83
2022/01/10 08:57:25;;;;;;;16.00;6.27;;;4.50;97.30;;;;;;4975956;28;20579;-83
2022/01/10 08:59:51;;;;;;;10.30;5.50;;;4.50;97.30;;;;;;4993219;28;20645;-83
2022/01/10 09:02:17;;;;;;;16.43;6.30;;;4.60;97.30;;;;;;4975739;28;20479;-83
2022/01/10 09:04:42;;;;;;;12.10;5.80;;;4.60;97.30;;;;;;4976227;28;20181;-83
2022/01/10 09:07:09;;;;;;;16.03;6.60;;;4.60;97.30;;;;;;4976202;28;20178;-84
2022/01/10 09:09:35;;;;;;;10.83;5.10;;;4.60;97.30;;;;;;4975991;28;20178;-84
2022/01/10 09:12:01;;;;;;;14.60;6.67;;;4.60;97.30;;;;;;4975838;28;20445;-84
2022/01/10 09:14:27;;;;;;;17.13;6.33;;;4.60;97.30;;;;;;4976168;28;21011;-84
2022/01/10 09:16:52;;;;;;;16.53;6.20;;;4.70;97.30;;;;;;4993477;28;20178;-83
2022/01/10 09:19:18;;;;;;;17.40;6.90;;;4.70;97.30;;;;;;4976152;28;20189;-84
2022/01/10 09:21:44;;;;;;;23.20;7.93;;;4.70;97.30;;;;;;4993086;28;20216;-84
2022/01/10 09:24:09;;;;;;;20.33;6.80;;;4.70;97.30;;;;;;4975722;28;20464;-83
2022/01/10 09:26:35;;;;;;;20.20;7.27;;;4.80;97.30;;;;;;4976137;28;20622;-83
2022/01/10 09:29:00;;;;;;;23.03;6.90;;;4.80;97.30;;;;;;4993610;28;20174;-83
2022/01/10 09:31:26;;;;;;;15.07;6.53;;;4.80;97.30;;;;;;4975889;28;20189;-83
2022/01/10 09:33:55;;;;;;;13.63;6.33;;;4.80;97.30;;;;;;4976040;28;20201;-83
2022/01/10 09:36:24;;;;;;;15.63;6.83;;;4.80;97.30;;;;;;4993305;28;20475;-83
2022/01/10 09:38:50;;;;;;;20.43;9.90;;;4.80;97.30;;;;;;4975828;28;20440;-83
2022/01/10 09:41:16;;;;;;;23.97;6.70;;;4.80;97.30;;;;;;4975704;28;20461;-82
2022/01/10 09:43:51;;;;;;;17.47;6.80;;;4.80;97.30;;;;;;4975820;28;20467;-83
2022/01/10 09:46:17;;;;;;;19.30;7.87;;;4.80;97.30;;;;;;4975661;28;20229;-83
2022/01/10 09:48:43;;;;;;;20.13;7.03;;;4.90;97.30;;;;;;4993430;28;20475;-83
2022/01/10 09:51:09;;;;;;;20.00;7.83;;;4.90;97.30;;;;;;4979591;28;20436;-83
2022/01/10 09:53:35;;;;;;;19.10;6.43;;;4.90;97.30;;;;;;4979356;28;20280;-84
2022/01/10 09:56:01;;;;;;;16.90;6.40;;;4.90;97.30;;;;;;4979735;28;20460;-83
2022/01/10 09:58:26;;;;;;;18.63;7.10;;;4.90;97.30;;;;;;4979548;28;20225;-84
2022/01/10 10:00:57;;;;;;;18.63;7.53;;;4.90;97.30;;;;;;4979207;28;20562;-84
2022/01/10 10:03:23;;;;;;;22.20;6.57;;;4.90;97.30;;;;;;4975960;28;20284;-83
2022/01/10 10:05:56;;;;;;;20.97;7.23;;;4.90;97.30;;;;;;4975909;28;20418;-83
2022/01/10 10:08:24;;;;;;;20.97;7.20;;;4.90;97.30;;;;;;4977290;28;20414;-83
2022/01/10 10:10:50;;;;;;;20.13;7.70;;;5.00;97.30;;;;;;4976000;28;20418;-83
2022/01/10 10:13:16;;;;;;;25.10;8.00;;;5.00;97.30;;;;;;4976022;28;20516;-84
2022/01/10 10:15:45;;;;;;;26.00;8.03;;;5.00;97.30;;;;;;4976105;28;20488;-84
2022/01/10 10:18:17;;;;;;;23.33;7.63;;;5.00;97.30;;;;;;4976157;28;20422;-84
2022/01/10 10:20:44;;;;;;;19.73;7.83;;;5.00;97.30;;;;;;4976771;28;20477;-83
2022/01/10 10:23:14;;;;;;;30.27;9.73;;;5.10;97.30;;;;;;4975644;28;20469;-83
2022/01/10 10:25:51;;;;;;;25.67;7.53;;;5.00;97.30;;;;;;4975562;28;20446;-83
2022/01/10 10:28:16;;;;;;;15.80;7.20;;;5.00;97.30;;;;;;4977004;28;20417;-83
2022/01/10 10:30:42;;;;;;;18.17;7.67;;;5.10;97.30;;;;;;4976540;28;20512;-83
2022/01/10 10:33:23;;;;;;;19.53;6.80;;;5.10;97.30;;;;;;4975640;28;20202;-83
2022/01/10 10:36:18;;;;;;;20.50;8.20;;;5.10;97.30;;;;;;4975462;28;20680;-83
2022/01/10 10:38:44;;;;;;;23.97;8.47;;;5.10;97.30;;;;;;4968209;28;20445;-83
2022/01/10 10:41:10;;;;;;;21.20;8.07;;;5.10;97.30;;;;;;4975260;28;20465;-83
2022/01/10 10:43:39;;;;;;;28.30;8.87;;;5.10;97.30;;;;;;4975325;28;20434;-83
2022/01/10 10:46:13;;;;;;;25.50;9.60;;;5.10;97.30;;;;;;4975291;28;20429;-83
2022/01/10 10:48:41;;;;;;;22.47;7.63;;;5.20;97.30;;;;;;4975089;28;20420;-83
2022/01/10 10:51:07;;;;;;;24.23;9.57;;;5.20;97.30;;;;;;4975882;28;20486;-84
2022/01/10 10:53:32;;;;;;;22.73;9.00;;;5.20;97.30;;;;;;4974925;28;20446;-83
2022/01/10 10:56:03;;;;;;;29.63;8.40;;;5.20;97.30;;;;;;4975072;28;20189;-83
2022/01/10 10:58:30;;;;;;;28.37;9.73;;;5.20;97.30;;;;;;4975073;28;20551;-83
2022/01/10 11:00:56;;;;;;;30.13;10.20;;;5.20;97.30;;;;;;4975665;28;20453;-83
2022/01/10 11:03:23;;;;;;;25.43;9.20;;;5.20;97.30;;;;;;4986298;28;20888;-83
2022/01/10 11:05:49;;;;;;;33.23;9.50;;;5.20;97.30;;;;;;4977976;28;20443;-84
2022/01/10 11:08:15;;;;;;;28.97;10.27;;;5.20;97.30;;;;;;4978150;28;20468;-84
2022/01/10 11:10:41;;;;;;;27.70;10.00;;;5.20;97.30;;;;;;4978008;28;20439;-83
2022/01/10 11:13:08;;;;;;;28.47;10.17;;;5.20;97.30;;;;;;4995271;28;20436;-84
2022/01/10 11:15:38;;;;;;;32.13;9.93;;;5.20;97.30;;;;;;4995680;28;20417;-83
2022/01/10 11:18:05;;;;;;;31.77;11.00;;;5.20;97.30;;;;;;4978105;28;20413;-83
2022/01/10 11:20:47;;;;;;;32.40;10.67;;;5.20;97.30;;;;;;4961765;28;20495;-82
2022/01/10 11:23:12;;;;;;;25.97;10.30;;;5.20;97.30;;;;;;4979093;28;20441;-84
2022/01/10 11:25:40;;;;;;;26.03;10.07;;;5.20;97.30;;;;;;4977947;28;21051;-84
2022/01/10 11:28:12;;;;;;;27.13;10.53;;;5.20;97.30;;;;;;4995297;28;20170;-84
2022/01/10 11:30:44;;;;;;;34.83;11.27;;;5.20;97.30;;;;;;4995169;28;20428;-84
2022/01/10 11:33:10;;;;;;;39.20;12.50;;;5.20;97.30;;;;;;4977877;28;20441;-84
2022/01/10 11:35:47;;;;;;;30.50;11.23;;;5.20;97.30;;;;;;4977463;28;21017;-84
2022/01/10 11:38:26;;;;;;;47.87;11.67;;;5.20;97.30;;;;;;4977562;28;20180;-84
2022/01/10 11:41:01;;;;;;;38.13;12.93;;;5.20;97.30;;;;;;4994968;28;20452;-85
2022/01/10 11:43:29;;;;;;;42.93;13.63;;;5.10;97.30;;;;;;4977549;28;20436;-85
2022/01/10 11:46:21;;;;;;;47.47;13.30;;;5.10;97.30;;;;;;4977510;28;20847;-84
2022/01/10 11:48:58;;;;;;;41.67;13.70;;;5.10;97.30;;;;;;4977416;28;20406;-84
2022/01/10 11:51:29;;;;;;;57.83;14.67;;;5.10;97.30;;;;;;4977441;28;20405;-84
2022/01/10 11:54:10;;;;;;;56.73;15.10;;;5.00;97.30;;;;;;4977753;28;20453;-84
2022/01/10 11:56:38;;;;;;;63.47;15.53;;;5.00;97.30;;;;;;4977231;28;20508;-84
2022/01/10 11:59:09;;;;;;;57.83;14.43;;;4.90;97.30;;;;;;4977621;28;20424;-84
2022/01/10 12:01:38;;;;;;;39.33;14.37;;;4.90;97.30;;;;;;4976941;28;20464;-84
2022/01/10 12:04:04;;;;;;;49.30;13.80;;;4.90;97.30;;;;;;4976906;28;20492;-84
2022/01/10 12:06:30;;;;;;;47.90;12.80;;;4.90;97.30;;;;;;4977014;28;20421;-84
2022/01/10 12:08:58;;;;;;;43.97;12.53;;;4.90;97.30;;;;;;4994582;28;20470;-84
2022/01/10 12:11:27;;;;;;;44.43;12.73;;;4.90;97.30;;;;;;4976417;28;20186;-84
2022/01/10 12:13:55;;;;;;;41.47;12.70;;;4.90;97.30;;;;;;4976872;28;20441;-84
2022/01/10 12:16:22;;;;;;;32.20;10.70;;;4.90;97.30;;;;;;4976955;28;20436;-84
2022/01/10 12:18:48;;;;;;;30.67;11.27;;;4.90;97.30;;;;;;4976977;28;20463;-84
2022/01/10 12:21:14;;;;;;;46.87;11.40;;;5.00;97.30;;;;;;4976570;28;20457;-83
2022/01/10 12:23:44;;;;;;;40.87;11.60;;;5.00;97.30;;;;;;4976912;28;20440;-84
2022/01/10 12:26:10;;;;;;;42.23;12.23;;;4.90;97.30;;;;;;4994207;28;20409;-84
2022/01/10 12:28:36;;;;;;;39.70;11.90;;;4.90;97.30;;;;;;4976643;28;20421;-84
2022/01/10 12:31:03;;;;;;;36.90;12.90;;;4.90;97.30;;;;;;4976740;28;20455;-84
2022/01/10 12:33:29;;;;;;;37.03;12.93;;;4.90;97.30;;;;;;4976450;28;20544;-84
2022/01/10 12:35:54;;;;;;;32.90;11.63;;;4.90;97.30;;;;;;4976438;28;20519;-84
2022/01/10 12:38:24;;;;;;;42.37;13.20;;;4.90;97.30;;;;;;4994271;28;20188;-84
2022/01/10 12:40:53;;;;;;;33.97;12.33;;;4.90;97.30;;;;;;4994084;28;20201;-84
2022/01/10 12:43:19;;;;;;;32.83;12.07;;;4.90;97.30;;;;;;4994224;28;20508;-84
2022/01/10 12:45:46;;;;;;;40.30;12.07;;;4.90;97.30;;;;;;4977067;28;20405;-83
2022/01/10 12:48:13;;;;;;;31.70;10.00;;;5.00;97.30;;;;;;4979217;28;20585;-84
2022/01/10 12:50:40;;;;;;;26.70;10.23;;;5.00;97.30;;;;;;4980545;28;20417;-83
2022/01/10 12:53:06;;;;;;;39.57;10.60;;;5.00;97.30;;;;;;4981170;28;20473;-83